sensor_id;sensor_type;location;lat;lon;timestamp;P1;durP1;ratioP1;P2;durP2;ratioP2
19869;SDS011;10097;50.862;4.696;2023-05-09T00:01:13;13.75;;;6.35;;
19869;SDS011;10097;50.862;4.696;2023-05-09T00:03:39;11.40;;;5.82;;
19869;SDS011;10097;50.862;4.696;2023-05-09T00:06:06;13.20;;;5.95;;
19869;SDS011;10097;50.862;4.696;2023-05-09T00:08:33;13.43;;;5.50;;
19869;SDS011;10097;50.862;4.696;2023-05-09T00:10:59;12.18;;;6.07;;
19869;SDS011;10097;50.862;4.696;2023-05-09T00:13:26;12.10;;;5.85;;
19869;SDS011;10097;50.862;4.696;2023-05-09T00:15:52;14.68;;;5.13;;
19869;SDS011;10097;50.862;4.696;2023-05-09T00:18:21;11.38;;;5.95;;
19869;SDS011;10097;50.862;4.696;2023-05-09T00:20:48;9.88;;;5.43;;
19869;SDS011;10097;50.862;4.696;2023-05-09T00:23:14;11.55;;;5.45;;
19869;SDS011;10097;50.862;4.696;2023-05-09T00:25:40;13.18;;;5.70;;
19869;SDS011;10097;50.862;4.696;2023-05-09T00:28:06;14.02;;;4.90;;
19869;SDS011;10097;50.862;4.696;2023-05-09T00:30:32;9.13;;;5.03;;
19869;SDS011;10097;50.862;4.696;2023-05-09T00:32:58;11.45;;;6.03;;
19869;SDS011;10097;50.862;4.696;2023-05-09T00:35:24;10.23;;;5.35;;
19869;SDS011;10097;50.862;4.696;2023-05-09T00:37:49;11.27;;;4.78;;
19869;SDS011;10097;50.862;4.696;2023-05-09T00:40:15;12.65;;;5.45;;
19869;SDS011;10097;50.862;4.696;2023-05-09T00:42:41;13.38;;;5.43;;
19869;SDS011;10097;50.862;4.696;2023-05-09T00:45:06;11.57;;;5.43;;
19869;SDS011;10097;50.862;4.696;2023-05-09T00:47:33;15.13;;;5.95;;
19869;SDS011;10097;50.862;4.696;2023-05-09T00:49:59;13.60;;;5.53;;
19869;SDS011;10097;50.862;4.696;2023-05-09T00:52:25;11.50;;;5.22;;
19869;SDS011;10097;50.862;4.696;2023-05-09T00:54:51;13.88;;;5.50;;
19869;SDS011;10097;50.862;4.696;2023-05-09T00:57:18;10.00;;;4.90;;
19869;SDS011;10097;50.862;4.696;2023-05-09T00:59:44;10.35;;;5.00;;
19869;SDS011;10097;50.862;4.696;2023-05-09T01:02:10;11.98;;;5.50;;
19869;SDS011;10097;50.862;4.696;2023-05-09T01:04:36;11.80;;;5.25;;
19869;SDS011;10097;50.862;4.696;2023-05-09T01:07:07;9.18;;;5.25;;
19869;SDS011;10097;50.862;4.696;2023-05-09T01:31:37;9.02;;;4.55;;
19869;SDS011;10097;50.862;4.696;2023-05-09T01:34:05;13.70;;;4.82;;
19869;SDS011;10097;50.862;4.696;2023-05-09T01:36:33;8.43;;;4.47;;
19869;SDS011;10097;50.862;4.696;2023-05-09T01:39:04;10.10;;;4.63;;
19869;SDS011;10097;50.862;4.696;2023-05-09T01:41:30;11.60;;;4.75;;
19869;SDS011;10097;50.862;4.696;2023-05-09T01:44:02;9.50;;;4.60;;
19869;SDS011;10097;50.862;4.696;2023-05-09T01:46:30;10.93;;;4.75;;
19869;SDS011;10097;50.862;4.696;2023-05-09T01:48:57;11.40;;;4.30;;
19869;SDS011;10097;50.862;4.696;2023-05-09T01:51:25;8.50;;;4.68;;
19869;SDS011;10097;50.862;4.696;2023-05-09T01:53:52;12.02;;;4.60;;
19869;SDS011;10097;50.862;4.696;2023-05-09T01:56:20;11.18;;;4.97;;
19869;SDS011;10097;50.862;4.696;2023-05-09T01:58:48;10.75;;;5.15;;
19869;SDS011;10097;50.862;4.696;2023-05-09T02:01:15;12.75;;;4.90;;
19869;SDS011;10097;50.862;4.696;2023-05-09T02:03:42;10.98;;;4.63;;
19869;SDS011;10097;50.862;4.696;2023-05-09T02:06:11;13.07;;;4.95;;
19869;SDS011;10097;50.862;4.696;2023-05-09T02:08:38;8.73;;;4.55;;
19869;SDS011;10097;50.862;4.696;2023-05-09T02:11:05;11.55;;;4.70;;
19869;SDS011;10097;50.862;4.696;2023-05-09T02:13:31;9.13;;;4.75;;
19869;SDS011;10097;50.862;4.696;2023-05-09T02:15:57;13.50;;;4.40;;
19869;SDS011;10097;50.862;4.696;2023-05-09T02:18:25;10.88;;;4.97;;
19869;SDS011;10097;50.862;4.696;2023-05-09T02:20:51;9.35;;;4.65;;
19869;SDS011;10097;50.862;4.696;2023-05-09T02:23:19;10.52;;;4.55;;
19869;SDS011;10097;50.862;4.696;2023-05-09T02:25:45;12.07;;;4.80;;
19869;SDS011;10097;50.862;4.696;2023-05-09T02:28:11;10.48;;;4.55;;
19869;SDS011;10097;50.862;4.696;2023-05-09T02:30:41;10.20;;;4.72;;
19869;SDS011;10097;50.862;4.696;2023-05-09T02:33:09;11.68;;;5.15;;
19869;SDS011;10097;50.862;4.696;2023-05-09T02:35:37;9.95;;;4.55;;
19869;SDS011;10097;50.862;4.696;2023-05-09T02:38:05;11.20;;;4.60;;
19869;SDS011;10097;50.862;4.696;2023-05-09T02:40:31;9.90;;;5.03;;
19869;SDS011;10097;50.862;4.696;2023-05-09T02:42:58;10.75;;;5.13;;
19869;SDS011;10097;50.862;4.696;2023-05-09T02:45:24;10.90;;;4.97;;
19869;SDS011;10097;50.862;4.696;2023-05-09T02:47:50;12.38;;;4.70;;
19869;SDS011;10097;50.862;4.696;2023-05-09T02:50:15;14.45;;;5.07;;
19869;SDS011;10097;50.862;4.696;2023-05-09T02:52:41;11.25;;;4.88;;
19869;SDS011;10097;50.862;4.696;2023-05-09T02:55:07;13.10;;;5.25;;
19869;SDS011;10097;50.862;4.696;2023-05-09T02:57:33;9.40;;;4.28;;
19869;SDS011;10097;50.862;4.696;2023-05-09T02:59:59;9.50;;;4.85;;
19869;SDS011;10097;50.862;4.696;2023-05-09T03:02:25;14.25;;;4.32;;
19869;SDS011;10097;50.862;4.696;2023-05-09T03:04:51;10.50;;;4.40;;
19869;SDS011;10097;50.862;4.696;2023-05-09T03:07:16;13.35;;;5.00;;
19869;SDS011;10097;50.862;4.696;2023-05-09T03:09:42;11.48;;;4.97;;
19869;SDS011;10097;50.862;4.696;2023-05-09T03:12:08;12.88;;;5.18;;
19869;SDS011;10097;50.862;4.696;2023-05-09T03:14:33;10.27;;;4.60;;
19869;SDS011;10097;50.862;4.696;2023-05-09T03:16:59;11.35;;;5.13;;
19869;SDS011;10097;50.862;4.696;2023-05-09T03:19:24;10.50;;;4.80;;
19869;SDS011;10097;50.862;4.696;2023-05-09T03:21:50;11.30;;;4.38;;
19869;SDS011;10097;50.862;4.696;2023-05-09T03:24:16;10.75;;;4.55;;
19869;SDS011;10097;50.862;4.696;2023-05-09T03:26:41;9.48;;;4.22;;
19869;SDS011;10097;50.862;4.696;2023-05-09T03:29:07;10.10;;;4.25;;
19869;SDS011;10097;50.862;4.696;2023-05-09T03:31:33;10.50;;;4.50;;
19869;SDS011;10097;50.862;4.696;2023-05-09T03:33:58;8.98;;;4.22;;
19869;SDS011;10097;50.862;4.696;2023-05-09T03:36:24;11.18;;;4.78;;
19869;SDS011;10097;50.862;4.696;2023-05-09T03:38:50;9.57;;;4.60;;
19869;SDS011;10097;50.862;4.696;2023-05-09T03:41:16;11.93;;;5.05;;
19869;SDS011;10097;50.862;4.696;2023-05-09T03:43:42;8.63;;;4.35;;
19869;SDS011;10097;50.862;4.696;2023-05-09T03:46:08;11.23;;;4.80;;
19869;SDS011;10097;50.862;4.696;2023-05-09T03:48:34;9.65;;;4.70;;
19869;SDS011;10097;50.862;4.696;2023-05-09T03:51:00;9.55;;;4.93;;
19869;SDS011;10097;50.862;4.696;2023-05-09T03:53:26;13.77;;;5.78;;
19869;SDS011;10097;50.862;4.696;2023-05-09T03:55:52;10.20;;;4.95;;
19869;SDS011;10097;50.862;4.696;2023-05-09T03:58:18;7.78;;;4.22;;
19869;SDS011;10097;50.862;4.696;2023-05-09T04:00:44;12.57;;;4.70;;
19869;SDS011;10097;50.862;4.696;2023-05-09T04:03:10;11.93;;;4.90;;
19869;SDS011;10097;50.862;4.696;2023-05-09T04:05:35;10.10;;;4.72;;
19869;SDS011;10097;50.862;4.696;2023-05-09T04:08:02;10.43;;;5.20;;
19869;SDS011;10097;50.862;4.696;2023-05-09T04:10:29;11.65;;;4.78;;
19869;SDS011;10097;50.862;4.696;2023-05-09T04:12:55;10.15;;;4.90;;
19869;SDS011;10097;50.862;4.696;2023-05-09T04:15:21;12.30;;;5.15;;
19869;SDS011;10097;50.862;4.696;2023-05-09T04:17:46;10.52;;;5.07;;
19869;SDS011;10097;50.862;4.696;2023-05-09T04:20:12;13.45;;;5.60;;
19869;SDS011;10097;50.862;4.696;2023-05-09T04:22:41;11.70;;;5.40;;
19869;SDS011;10097;50.862;4.696;2023-05-09T04:25:06;11.27;;;5.53;;
19869;SDS011;10097;50.862;4.696;2023-05-09T04:27:36;11.20;;;4.97;;
19869;SDS011;10097;50.862;4.696;2023-05-09T04:30:02;8.82;;;4.75;;
19869;SDS011;10097;50.862;4.696;2023-05-09T04:32:27;12.95;;;5.68;;
19869;SDS011;10097;50.862;4.696;2023-05-09T04:34:53;12.10;;;4.97;;
19869;SDS011;10097;50.862;4.696;2023-05-09T04:37:19;12.82;;;5.13;;
19869;SDS011;10097;50.862;4.696;2023-05-09T04:39:45;9.73;;;4.80;;
19869;SDS011;10097;50.862;4.696;2023-05-09T04:42:11;11.70;;;5.68;;
19869;SDS011;10097;50.862;4.696;2023-05-09T04:44:36;12.93;;;5.13;;
19869;SDS011;10097;50.862;4.696;2023-05-09T04:47:02;15.80;;;5.25;;
19869;SDS011;10097;50.862;4.696;2023-05-09T04:49:28;11.23;;;5.40;;
19869;SDS011;10097;50.862;4.696;2023-05-09T04:51:53;9.30;;;4.82;;
19869;SDS011;10097;50.862;4.696;2023-05-09T04:54:19;11.32;;;4.70;;
19869;SDS011;10097;50.862;4.696;2023-05-09T04:56:45;10.65;;;5.50;;
19869;SDS011;10097;50.862;4.696;2023-05-09T04:59:11;13.85;;;6.32;;
19869;SDS011;10097;50.862;4.696;2023-05-09T05:01:36;11.10;;;5.53;;
19869;SDS011;10097;50.862;4.696;2023-05-09T05:04:02;11.48;;;5.22;;
19869;SDS011;10097;50.862;4.696;2023-05-09T05:06:28;15.38;;;5.68;;
19869;SDS011;10097;50.862;4.696;2023-05-09T05:08:53;12.93;;;5.70;;
19869;SDS011;10097;50.862;4.696;2023-05-09T05:11:20;13.45;;;6.10;;
19869;SDS011;10097;50.862;4.696;2023-05-09T05:13:45;11.38;;;5.07;;
19869;SDS011;10097;50.862;4.696;2023-05-09T05:16:11;14.27;;;5.45;;
19869;SDS011;10097;50.862;4.696;2023-05-09T05:18:37;11.38;;;5.15;;
19869;SDS011;10097;50.862;4.696;2023-05-09T05:21:02;13.18;;;5.20;;
19869;SDS011;10097;50.862;4.696;2023-05-09T05:23:28;9.43;;;5.03;;
19869;SDS011;10097;50.862;4.696;2023-05-09T05:25:54;11.45;;;5.07;;
19869;SDS011;10097;50.862;4.696;2023-05-09T05:28:19;9.88;;;5.28;;
19869;SDS011;10097;50.862;4.696;2023-05-09T05:30:45;12.55;;;5.05;;
19869;SDS011;10097;50.862;4.696;2023-05-09T05:33:10;15.57;;;5.35;;
19869;SDS011;10097;50.862;4.696;2023-05-09T05:35:36;11.48;;;5.45;;
19869;SDS011;10097;50.862;4.696;2023-05-09T05:38:02;12.95;;;5.50;;
19869;SDS011;10097;50.862;4.696;2023-05-09T05:40:28;12.00;;;6.78;;
19869;SDS011;10097;50.862;4.696;2023-05-09T05:42:53;10.30;;;5.43;;
19869;SDS011;10097;50.862;4.696;2023-05-09T05:45:19;11.10;;;6.03;;
19869;SDS011;10097;50.862;4.696;2023-05-09T05:47:45;13.98;;;6.90;;
19869;SDS011;10097;50.862;4.696;2023-05-09T05:50:11;11.23;;;6.03;;
19869;SDS011;10097;50.862;4.696;2023-05-09T05:52:39;15.38;;;7.38;;
19869;SDS011;10097;50.862;4.696;2023-05-09T05:55:05;11.90;;;6.55;;
19869;SDS011;10097;50.862;4.696;2023-05-09T05:57:32;13.48;;;6.60;;
19869;SDS011;10097;50.862;4.696;2023-05-09T05:59:59;15.20;;;7.05;;
19869;SDS011;10097;50.862;4.696;2023-05-09T06:02:26;14.65;;;7.68;;
19869;SDS011;10097;50.862;4.696;2023-05-09T06:04:52;13.25;;;6.82;;
19869;SDS011;10097;50.862;4.696;2023-05-09T06:07:17;13.95;;;7.43;;
19869;SDS011;10097;50.862;4.696;2023-05-09T06:09:43;12.75;;;7.18;;
19869;SDS011;10097;50.862;4.696;2023-05-09T06:12:09;17.17;;;7.68;;
19869;SDS011;10097;50.862;4.696;2023-05-09T06:14:35;12.85;;;7.25;;
19869;SDS011;10097;50.862;4.696;2023-05-09T06:17:01;13.45;;;7.80;;
19869;SDS011;10097;50.862;4.696;2023-05-09T06:19:27;15.57;;;7.90;;
19869;SDS011;10097;50.862;4.696;2023-05-09T06:21:53;15.48;;;7.90;;
19869;SDS011;10097;50.862;4.696;2023-05-09T06:24:18;14.45;;;8.02;;
19869;SDS011;10097;50.862;4.696;2023-05-09T06:26:44;13.02;;;7.95;;
19869;SDS011;10097;50.862;4.696;2023-05-09T06:29:10;13.23;;;7.47;;
19869;SDS011;10097;50.862;4.696;2023-05-09T06:31:35;14.73;;;7.43;;
19869;SDS011;10097;50.862;4.696;2023-05-09T06:34:03;14.43;;;7.90;;
19869;SDS011;10097;50.862;4.696;2023-05-09T06:36:29;14.18;;;8.65;;
19869;SDS011;10097;50.862;4.696;2023-05-09T06:38:54;17.25;;;7.80;;
19869;SDS011;10097;50.862;4.696;2023-05-09T06:41:20;15.13;;;7.88;;
19869;SDS011;10097;50.862;4.696;2023-05-09T06:43:46;13.27;;;7.97;;
19869;SDS011;10097;50.862;4.696;2023-05-09T06:46:12;17.10;;;7.82;;
19869;SDS011;10097;50.862;4.696;2023-05-09T06:48:38;14.75;;;7.70;;
19869;SDS011;10097;50.862;4.696;2023-05-09T06:51:03;12.93;;;7.88;;
19869;SDS011;10097;50.862;4.696;2023-05-09T06:53:29;13.88;;;7.70;;
19869;SDS011;10097;50.862;4.696;2023-05-09T06:55:54;13.35;;;6.88;;
19869;SDS011;10097;50.862;4.696;2023-05-09T06:58:20;13.98;;;6.90;;
19869;SDS011;10097;50.862;4.696;2023-05-09T07:00:46;12.18;;;6.88;;
19869;SDS011;10097;50.862;4.696;2023-05-09T07:03:12;14.55;;;7.00;;
19869;SDS011;10097;50.862;4.696;2023-05-09T07:05:38;15.18;;;6.35;;
19869;SDS011;10097;50.862;4.696;2023-05-09T07:08:04;11.30;;;6.53;;
19869;SDS011;10097;50.862;4.696;2023-05-09T07:10:30;12.13;;;5.68;;
19869;SDS011;10097;50.862;4.696;2023-05-09T07:12:55;10.20;;;5.68;;
19869;SDS011;10097;50.862;4.696;2023-05-09T07:15:21;12.77;;;6.38;;
19869;SDS011;10097;50.862;4.696;2023-05-09T07:17:47;12.40;;;6.63;;
19869;SDS011;10097;50.862;4.696;2023-05-09T07:20:13;19.13;;;6.05;;
19869;SDS011;10097;50.862;4.696;2023-05-09T07:22:38;14.15;;;5.57;;
19869;SDS011;10097;50.862;4.696;2023-05-09T07:25:05;11.00;;;6.07;;
19869;SDS011;10097;50.862;4.696;2023-05-09T07:27:32;11.82;;;6.32;;
19869;SDS011;10097;50.862;4.696;2023-05-09T07:29:58;12.30;;;6.15;;
19869;SDS011;10097;50.862;4.696;2023-05-09T07:32:24;9.50;;;5.57;;
19869;SDS011;10097;50.862;4.696;2023-05-09T07:34:52;12.52;;;5.40;;
19869;SDS011;10097;50.862;4.696;2023-05-09T07:37:18;9.77;;;5.38;;
19869;SDS011;10097;50.862;4.696;2023-05-09T07:39:44;10.07;;;6.10;;
19869;SDS011;10097;50.862;4.696;2023-05-09T07:42:11;11.07;;;5.63;;
19869;SDS011;10097;50.862;4.696;2023-05-09T07:44:37;10.50;;;6.10;;
19869;SDS011;10097;50.862;4.696;2023-05-09T07:47:03;14.27;;;6.25;;
19869;SDS011;10097;50.862;4.696;2023-05-09T07:49:29;11.18;;;6.15;;
19869;SDS011;10097;50.862;4.696;2023-05-09T07:51:56;10.32;;;5.93;;
19869;SDS011;10097;50.862;4.696;2023-05-09T07:54:21;9.73;;;6.20;;
19869;SDS011;10097;50.862;4.696;2023-05-09T07:56:47;11.95;;;6.45;;
19869;SDS011;10097;50.862;4.696;2023-05-09T07:59:18;11.98;;;6.50;;
19869;SDS011;10097;50.862;4.696;2023-05-09T08:01:44;11.20;;;6.05;;
19869;SDS011;10097;50.862;4.696;2023-05-09T08:04:10;10.98;;;6.47;;
19869;SDS011;10097;50.862;4.696;2023-05-09T08:06:35;11.57;;;6.60;;
19869;SDS011;10097;50.862;4.696;2023-05-09T08:09:01;11.88;;;6.40;;
19869;SDS011;10097;50.862;4.696;2023-05-09T08:11:27;11.80;;;6.32;;
19869;SDS011;10097;50.862;4.696;2023-05-09T08:13:53;11.70;;;6.07;;
19869;SDS011;10097;50.862;4.696;2023-05-09T08:16:18;11.85;;;6.07;;
19869;SDS011;10097;50.862;4.696;2023-05-09T08:18:44;12.60;;;5.47;;
19869;SDS011;10097;50.862;4.696;2023-05-09T08:21:10;11.55;;;6.18;;
19869;SDS011;10097;50.862;4.696;2023-05-09T08:23:36;12.30;;;6.03;;
19869;SDS011;10097;50.862;4.696;2023-05-09T08:26:02;10.88;;;6.05;;
19869;SDS011;10097;50.862;4.696;2023-05-09T08:28:28;12.25;;;6.07;;
19869;SDS011;10097;50.862;4.696;2023-05-09T08:30:54;10.25;;;6.20;;
19869;SDS011;10097;50.862;4.696;2023-05-09T08:33:20;12.10;;;5.85;;
19869;SDS011;10097;50.862;4.696;2023-05-09T08:35:50;11.77;;;6.25;;
19869;SDS011;10097;50.862;4.696;2023-05-09T08:38:16;12.63;;;6.20;;
19869;SDS011;10097;50.862;4.696;2023-05-09T08:40:42;11.85;;;6.32;;
19869;SDS011;10097;50.862;4.696;2023-05-09T08:43:07;12.82;;;6.18;;
19869;SDS011;10097;50.862;4.696;2023-05-09T08:45:38;11.80;;;6.70;;
19869;SDS011;10097;50.862;4.696;2023-05-09T08:48:09;12.65;;;5.75;;
19869;SDS011;10097;50.862;4.696;2023-05-09T08:50:35;8.70;;;5.07;;
19869;SDS011;10097;50.862;4.696;2023-05-09T08:53:01;12.00;;;5.35;;
19869;SDS011;10097;50.862;4.696;2023-05-09T08:55:27;9.40;;;4.72;;
19869;SDS011;10097;50.862;4.696;2023-05-09T08:57:53;12.25;;;5.35;;
19869;SDS011;10097;50.862;4.696;2023-05-09T09:00:19;9.93;;;5.38;;
19869;SDS011;10097;50.862;4.696;2023-05-09T09:02:45;9.60;;;5.05;;
19869;SDS011;10097;50.862;4.696;2023-05-09T09:05:11;9.60;;;4.80;;
19869;SDS011;10097;50.862;4.696;2023-05-09T09:07:37;12.30;;;4.70;;
19869;SDS011;10097;50.862;4.696;2023-05-09T09:10:05;9.25;;;5.03;;
19869;SDS011;10097;50.862;4.696;2023-05-09T09:12:33;13.57;;;5.30;;
19869;SDS011;10097;50.862;4.696;2023-05-09T09:15:01;12.60;;;4.57;;
19869;SDS011;10097;50.862;4.696;2023-05-09T09:17:29;8.63;;;4.10;;
19869;SDS011;10097;50.862;4.696;2023-05-09T09:19:57;9.65;;;4.10;;
19869;SDS011;10097;50.862;4.696;2023-05-09T09:22:27;10.70;;;3.85;;
19869;SDS011;10097;50.862;4.696;2023-05-09T09:25:01;9.15;;;3.70;;
19869;SDS011;10097;50.862;4.696;2023-05-09T09:27:27;9.68;;;3.60;;
19869;SDS011;10097;50.862;4.696;2023-05-09T09:29:53;9.77;;;3.50;;
19869;SDS011;10097;50.862;4.696;2023-05-09T09:32:19;7.38;;;3.67;;
19869;SDS011;10097;50.862;4.696;2023-05-09T09:35:02;6.10;;;3.30;;
19869;SDS011;10097;50.862;4.696;2023-05-09T09:37:35;6.80;;;3.50;;
19869;SDS011;10097;50.862;4.696;2023-05-09T09:40:03;6.53;;;3.25;;
19869;SDS011;10097;50.862;4.696;2023-05-09T09:42:42;6.25;;;3.00;;
19869;SDS011;10097;50.862;4.696;2023-05-09T09:47:36;9.10;;;3.17;;
19869;SDS011;10097;50.862;4.696;2023-05-09T09:50:15;6.63;;;3.40;;
19869;SDS011;10097;50.862;4.696;2023-05-09T09:55:08;17.17;;;3.85;;
19869;SDS011;10097;50.862;4.696;2023-05-09T09:57:35;6.97;;;2.92;;
19869;SDS011;10097;50.862;4.696;2023-05-09T10:00:05;8.60;;;2.92;;
19869;SDS011;10097;50.862;4.696;2023-05-09T10:02:32;8.27;;;2.90;;
19869;SDS011;10097;50.862;4.696;2023-05-09T10:05:05;9.13;;;2.85;;
19869;SDS011;10097;50.862;4.696;2023-05-09T10:07:34;8.07;;;3.00;;
19869;SDS011;10097;50.862;4.696;2023-05-09T10:10:01;7.55;;;2.90;;
19869;SDS011;10097;50.862;4.696;2023-05-09T10:12:32;6.80;;;3.00;;
19869;SDS011;10097;50.862;4.696;2023-05-09T10:14:59;7.85;;;2.90;;
19869;SDS011;10097;50.862;4.696;2023-05-09T10:17:27;22.92;;;4.15;;
19869;SDS011;10097;50.862;4.696;2023-05-09T10:19:56;6.20;;;3.00;;
19869;SDS011;10097;50.862;4.696;2023-05-09T10:22:22;8.55;;;3.15;;
19869;SDS011;10097;50.862;4.696;2023-05-09T10:25:00;7.45;;;3.17;;
19869;SDS011;10097;50.862;4.696;2023-05-09T10:27:30;9.75;;;3.25;;
19869;SDS011;10097;50.862;4.696;2023-05-09T10:30:11;6.95;;;3.30;;
19869;SDS011;10097;50.862;4.696;2023-05-09T10:32:47;7.25;;;2.95;;
19869;SDS011;10097;50.862;4.696;2023-05-09T10:35:16;9.88;;;3.35;;
19869;SDS011;10097;50.862;4.696;2023-05-09T10:37:46;9.80;;;3.90;;
19869;SDS011;10097;50.862;4.696;2023-05-09T10:40:12;7.72;;;2.60;;
19869;SDS011;10097;50.862;4.696;2023-05-09T10:42:43;8.18;;;3.08;;
19869;SDS011;10097;50.862;4.696;2023-05-09T10:45:09;5.75;;;2.78;;
19869;SDS011;10097;50.862;4.696;2023-05-09T10:47:37;7.68;;;3.13;;
19869;SDS011;10097;50.862;4.696;2023-05-09T10:50:07;7.53;;;3.22;;
19869;SDS011;10097;50.862;4.696;2023-05-09T10:53:03;7.82;;;3.50;;
19869;SDS011;10097;50.862;4.696;2023-05-09T10:55:46;10.60;;;3.90;;
19869;SDS011;10097;50.862;4.696;2023-05-09T11:00:54;7.38;;;3.42;;
19869;SDS011;10097;50.862;4.696;2023-05-09T11:03:22;6.70;;;3.05;;
19869;SDS011;10097;50.862;4.696;2023-05-09T11:05:50;4.97;;;2.67;;
19869;SDS011;10097;50.862;4.696;2023-05-09T11:08:27;10.10;;;3.33;;
19869;SDS011;10097;50.862;4.696;2023-05-09T11:11:05;7.93;;;3.15;;
19869;SDS011;10097;50.862;4.696;2023-05-09T11:13:32;8.15;;;3.60;;
19869;SDS011;10097;50.862;4.696;2023-05-09T11:18:32;7.53;;;3.35;;
19869;SDS011;10097;50.862;4.696;2023-05-09T11:20:58;8.55;;;3.17;;
19869;SDS011;10097;50.862;4.696;2023-05-09T11:23:31;9.50;;;3.75;;
19869;SDS011;10097;50.862;4.696;2023-05-09T11:26:04;10.40;;;3.40;;
19869;SDS011;10097;50.862;4.696;2023-05-09T11:28:32;7.22;;;3.65;;
19869;SDS011;10097;50.862;4.696;2023-05-09T11:31:09;8.10;;;3.28;;
19869;SDS011;10097;50.862;4.696;2023-05-09T11:33:37;8.02;;;3.45;;
19869;SDS011;10097;50.862;4.696;2023-05-09T11:39:03;8.20;;;3.05;;
19869;SDS011;10097;50.862;4.696;2023-05-09T11:41:38;10.77;;;3.55;;
19869;SDS011;10097;50.862;4.696;2023-05-09T11:44:18;7.78;;;3.65;;
19869;SDS011;10097;50.862;4.696;2023-05-09T11:46:45;9.02;;;3.58;;
19869;SDS011;10097;50.862;4.696;2023-05-09T11:49:12;10.05;;;3.35;;
19869;SDS011;10097;50.862;4.696;2023-05-09T11:51:38;7.05;;;2.90;;
19869;SDS011;10097;50.862;4.696;2023-05-09T11:54:07;7.30;;;3.22;;
19869;SDS011;10097;50.862;4.696;2023-05-09T11:56:35;7.38;;;3.30;;
19869;SDS011;10097;50.862;4.696;2023-05-09T11:59:02;7.82;;;3.40;;
19869;SDS011;10097;50.862;4.696;2023-05-09T12:01:28;8.48;;;3.42;;
19869;SDS011;10097;50.862;4.696;2023-05-09T12:03:54;9.43;;;3.65;;
19869;SDS011;10097;50.862;4.696;2023-05-09T12:06:21;7.95;;;3.40;;
19869;SDS011;10097;50.862;4.696;2023-05-09T12:08:47;7.22;;;3.58;;
19869;SDS011;10097;50.862;4.696;2023-05-09T12:11:13;6.97;;;3.58;;
19869;SDS011;10097;50.862;4.696;2023-05-09T12:13:43;9.55;;;4.20;;
19869;SDS011;10097;50.862;4.696;2023-05-09T12:16:10;7.30;;;3.25;;
19869;SDS011;10097;50.862;4.696;2023-05-09T12:18:36;7.72;;;3.55;;
19869;SDS011;10097;50.862;4.696;2023-05-09T12:21:02;11.30;;;3.85;;
19869;SDS011;10097;50.862;4.696;2023-05-09T12:23:33;8.70;;;3.35;;
19869;SDS011;10097;50.862;4.696;2023-05-09T12:25:59;7.18;;;3.63;;
19869;SDS011;10097;50.862;4.696;2023-05-09T12:28:25;8.52;;;3.65;;
19869;SDS011;10097;50.862;4.696;2023-05-09T12:30:51;10.20;;;4.63;;
19869;SDS011;10097;50.862;4.696;2023-05-09T12:33:20;8.93;;;3.60;;
19869;SDS011;10097;50.862;4.696;2023-05-09T12:35:48;8.43;;;3.88;;
19869;SDS011;10097;50.862;4.696;2023-05-09T12:38:35;8.40;;;3.42;;
19869;SDS011;10097;50.862;4.696;2023-05-09T12:41:02;7.75;;;3.25;;
19869;SDS011;10097;50.862;4.696;2023-05-09T12:43:30;7.68;;;4.05;;
19869;SDS011;10097;50.862;4.696;2023-05-09T12:46:00;8.45;;;3.80;;
19869;SDS011;10097;50.862;4.696;2023-05-09T12:48:27;11.98;;;3.97;;
19869;SDS011;10097;50.862;4.696;2023-05-09T12:50:53;9.13;;;3.97;;
19869;SDS011;10097;50.862;4.696;2023-05-09T12:53:26;8.50;;;4.00;;
19869;SDS011;10097;50.862;4.696;2023-05-09T12:58:29;12.07;;;3.13;;
19869;SDS011;10097;50.862;4.696;2023-05-09T13:00:58;8.65;;;2.90;;
19869;SDS011;10097;50.862;4.696;2023-05-09T13:03:28;7.55;;;2.70;;
19869;SDS011;10097;50.862;4.696;2023-05-09T13:05:59;6.60;;;2.17;;
19869;SDS011;10097;50.862;4.696;2023-05-09T13:08:26;4.80;;;1.77;;
19869;SDS011;10097;50.862;4.696;2023-05-09T13:10:52;4.88;;;1.98;;
19869;SDS011;10097;50.862;4.696;2023-05-09T13:13:18;5.78;;;1.75;;
19869;SDS011;10097;50.862;4.696;2023-05-09T13:15:45;9.00;;;1.70;;
19869;SDS011;10097;50.862;4.696;2023-05-09T13:18:11;5.25;;;2.03;;
19869;SDS011;10097;50.862;4.696;2023-05-09T13:20:37;8.50;;;2.58;;
19869;SDS011;10097;50.862;4.696;2023-05-09T13:23:03;10.23;;;2.10;;
19869;SDS011;10097;50.862;4.696;2023-05-09T13:25:28;4.28;;;1.42;;
19869;SDS011;10097;50.862;4.696;2023-05-09T13:27:54;2.85;;;1.40;;
19869;SDS011;10097;50.862;4.696;2023-05-09T13:30:20;6.22;;;1.85;;
19869;SDS011;10097;50.862;4.696;2023-05-09T13:32:46;7.18;;;1.83;;
19869;SDS011;10097;50.862;4.696;2023-05-09T13:35:12;3.38;;;1.42;;
19869;SDS011;10097;50.862;4.696;2023-05-09T13:37:38;3.83;;;1.80;;
19869;SDS011;10097;50.862;4.696;2023-05-09T13:40:03;6.85;;;1.40;;
19869;SDS011;10097;50.862;4.696;2023-05-09T13:42:32;2.65;;;1.23;;
19869;SDS011;10097;50.862;4.696;2023-05-09T13:44:58;5.97;;;1.60;;
19869;SDS011;10097;50.862;4.696;2023-05-09T13:47:24;4.13;;;1.48;;
19869;SDS011;10097;50.862;4.696;2023-05-09T13:49:50;6.65;;;1.48;;
19869;SDS011;10097;50.862;4.696;2023-05-09T13:52:16;2.40;;;1.35;;
19869;SDS011;10097;50.862;4.696;2023-05-09T13:54:42;4.03;;;1.00;;
19869;SDS011;10097;50.862;4.696;2023-05-09T13:57:08;4.55;;;1.50;;
19869;SDS011;10097;50.862;4.696;2023-05-09T13:59:34;7.43;;;1.40;;
19869;SDS011;10097;50.862;4.696;2023-05-09T14:02:00;4.60;;;1.38;;
19869;SDS011;10097;50.862;4.696;2023-05-09T14:04:26;6.22;;;1.25;;
19869;SDS011;10097;50.862;4.696;2023-05-09T14:06:53;7.65;;;1.23;;
19869;SDS011;10097;50.862;4.696;2023-05-09T14:09:19;3.65;;;1.08;;
19869;SDS011;10097;50.862;4.696;2023-05-09T14:11:46;5.35;;;1.00;;
19869;SDS011;10097;50.862;4.696;2023-05-09T14:14:15;1.95;;;1.10;;
19869;SDS011;10097;50.862;4.696;2023-05-09T14:16:40;3.35;;;1.17;;
19869;SDS011;10097;50.862;4.696;2023-05-09T14:19:06;5.22;;;1.20;;
19869;SDS011;10097;50.862;4.696;2023-05-09T14:21:32;8.07;;;1.60;;
19869;SDS011;10097;50.862;4.696;2023-05-09T14:23:58;8.73;;;1.25;;
19869;SDS011;10097;50.862;4.696;2023-05-09T14:26:24;2.55;;;1.02;;
19869;SDS011;10097;50.862;4.696;2023-05-09T14:28:50;2.92;;;1.20;;
19869;SDS011;10097;50.862;4.696;2023-05-09T14:31:17;3.22;;;0.95;;
19869;SDS011;10097;50.862;4.696;2023-05-09T14:33:43;2.75;;;1.00;;
19869;SDS011;10097;50.862;4.696;2023-05-09T14:36:09;3.85;;;1.95;;
19869;SDS011;10097;50.862;4.696;2023-05-09T14:38:35;6.03;;;1.33;;
19869;SDS011;10097;50.862;4.696;2023-05-09T14:41:01;4.20;;;1.40;;
19869;SDS011;10097;50.862;4.696;2023-05-09T14:43:27;4.18;;;1.17;;
19869;SDS011;10097;50.862;4.696;2023-05-09T14:45:53;2.45;;;0.80;;
19869;SDS011;10097;50.862;4.696;2023-05-09T14:48:19;2.47;;;1.00;;
19869;SDS011;10097;50.862;4.696;2023-05-09T14:50:45;4.75;;;0.98;;
19869;SDS011;10097;50.862;4.696;2023-05-09T14:53:11;3.10;;;0.82;;
19869;SDS011;10097;50.862;4.696;2023-05-09T14:55:37;3.55;;;1.10;;
19869;SDS011;10097;50.862;4.696;2023-05-09T14:58:02;2.45;;;0.90;;
19869;SDS011;10097;50.862;4.696;2023-05-09T15:00:28;3.20;;;0.75;;
19869;SDS011;10097;50.862;4.696;2023-05-09T15:02:54;4.50;;;1.00;;
19869;SDS011;10097;50.862;4.696;2023-05-09T15:05:20;5.78;;;1.10;;
19869;SDS011;10097;50.862;4.696;2023-05-09T15:07:45;2.17;;;0.90;;
19869;SDS011;10097;50.862;4.696;2023-05-09T15:10:11;4.32;;;0.90;;
19869;SDS011;10097;50.862;4.696;2023-05-09T15:12:37;2.33;;;0.82;;
19869;SDS011;10097;50.862;4.696;2023-05-09T15:17:38;3.13;;;1.08;;
19869;SDS011;10097;50.862;4.696;2023-05-09T15:20:05;2.20;;;1.10;;